Atlantic - Newfoundland: Past 24 Hour Conditions

 

St.Paul Island

05:00 AM ADT 21 October 2014
This table is a summary of hourly weather conditions for the past 24 hours.
Date / Time
(ADT)
Wind(knots) Conditions Visibility(km) Pressure(kPa) Air tempC) Relative humidity(%) Dew pointC)
21 October 2014
5:00 W 30 gust 36 N/A N/A 101.2 8 73 3
4:00 W 34 N/A N/A 101.1 8 71 3
3:00 W 31 gust 37 N/A N/A 101.0 8 71 3
2:00 W 32 gust 39 N/A N/A 100.9 8 73 4
1:00 W 35 gust 42 N/A N/A 100.8 8 71 3
0:00 W 33 gust 41 N/A N/A 100.8 8 78 4
20 October 2014
23:00 W 36 gust 42 N/A N/A 100.7 7 79 4
22:00 W 34 gust 44 N/A N/A 100.7 8 72 3
21:00 W 37 gust 45 N/A N/A 100.5 8 78 4
20:00 W 39 gust 46 N/A N/A 100.5 7 76 3
19:00 W 36 gust 44 N/A N/A 100.4 8 80 4
18:00 W 42 N/A N/A 100.3 7 82 4
17:00 W 41 gust 47 N/A N/A 100.2 7 80 4
16:00 WSW 43 gust 50 N/A N/A 100.1 7 77 3
15:00 W 39 gust 46 N/A N/A 100.0 8 78 5
14:00 W 35 gust 44 N/A N/A 99.9 8 85 6
13:00 W 32 gust 39 N/A N/A 99.8 8 82 6
12:00 W 32 N/A N/A 99.8 8 89 6
11:00 WNW 34 N/A N/A 99.6 8 90 7
10:00 WNW 32 gust 39 N/A N/A 99.5 8 97 8
9:00 WNW 32 N/A N/A 99.3 9 97 9
8:00 WNW 30 gust 35 N/A N/A 99.1 10 99 10
7:00 NW 24 N/A N/A 99.1 10 100 10
6:00 N 20 N/A N/A 99.1 10 100 10
5:00 NNE 22 gust 28 N/A N/A 99.1 10 100 10
 
Map of Atlantic - Newfoundland marine weather areas Southwestern Grand Banks - 44138 Banquereau - 44139 Tail of the Bank - 44140 Nickerson Bank - 44251 Northeast Burgeo Bank - 44255 Blanc-Sablon Airport Cap Whittle Chevery Natashquan Airport Heath Point Miscou Island Grand Étang Ingonish Beach North Mountain St.Paul Island J.A. Douglas McCurdy Sydney Airport Charlottetown Airport East Point North Cape Argentia Bonavista Burgeo Cape Race Corner Brook Daniel's Harbour Englee Ferolle Point La Scie Port aux Basques Rocky Harbour Sagona Island St. Anthony Airport St. John's Int'l Airport St. Lawrence Stephenville Airport Twillingate Winterland Wreckhouse Cartwright Airport Mary's Harbour Grates Cove Pool's Island Marticot Island Long Pond Îles de la Madeleine Airport
Legend: buoyBuoy land stationLand Station